Terminal Aerodrome Forecast
Issued by NWS

Home | Current Version | Previous Version | Text Only | Print | Product List | Glossary Off
Versions: 1 2 3 4 5 6 7 8 9 10 11 12 13 14 15 16 17 18 19 20 21 22 23

000
FTUS41 KCLE 112024 AAA
TAFFDY
TAF AMD
KFDY 112024Z 1120/1218 18010KT P6SM SCT050 OVC070
     FM120300 21008KT P6SM BKN035
     FM120600 28012KT 4SM -SN OVC025
     FM120800 30015G25KT 2SM -SN OVC015
     FM121300 31018G28KT P6SM OVC025=

USA.gov is the U.S. government's official web portal to all federal, state and local government web resources and services.